createdAt,value
2024-04-06T04:39:08.103Z,85.08
2024-04-06T04:40:09.478Z,84.99
2024-04-06T04:41:10.868Z,85.08
2024-04-06T04:42:12.246Z,85.19
2024-04-06T04:43:13.636Z,85.19
2024-04-06T04:44:30.243Z,85.49
2024-04-06T04:45:16.844Z,85.39
2024-04-06T04:46:18.243Z,85.59
2024-04-06T04:47:19.618Z,85.59
2024-04-06T04:48:20.998Z,85.49
2024-04-06T04:49:22.380Z,85.39
2024-04-06T04:50:23.728Z,85.29
2024-04-06T04:51:25.110Z,85.05
2024-04-06T04:52:26.484Z,85.05
2024-04-06T04:53:27.844Z,85.15
2024-04-06T04:54:29.218Z,84.94
2024-04-06T04:55:30.591Z,84.94
2024-04-06T04:56:32.006Z,84.94
2024-04-06T04:57:33.371Z,84.85
2024-04-06T04:58:34.742Z,85.15
2024-04-06T04:59:36.145Z,84.85
2024-04-06T05:00:37.487Z,84.91
2024-04-06T05:01:38.972Z,84.80
2024-04-06T05:02:40.314Z,84.80
2024-04-06T05:03:41.693Z,85.00
2024-04-06T05:04:43.053Z,85.11
2024-04-06T05:05:44.416Z,84.91
2024-04-06T05:06:45.792Z,84.50
2024-04-06T05:07:47.139Z,84.50
2024-04-06T05:08:48.501Z,84.40
2024-04-06T05:09:49.870Z,84.19
2024-04-06T05:10:51.231Z,84.19
2024-04-06T05:11:52.626Z,83.99
2024-04-06T05:12:53.994Z,83.99
2024-04-06T05:14:05.626Z,83.99
2024-04-06T05:14:57.096Z,83.99
2024-04-06T05:15:58.458Z,84.10
2024-04-06T05:16:59.889Z,83.95
2024-04-06T05:18:01.233Z,84.05
2024-04-06T05:19:02.588Z,83.55
2024-04-06T05:20:03.947Z,83.34
2024-04-06T05:21:05.298Z,83.45
2024-04-06T05:22:06.665Z,83.34
2024-04-06T05:23:08.052Z,83.45
2024-04-06T05:24:09.397Z,83.45
2024-04-06T05:25:10.792Z,83.55
2024-04-06T05:26:12.164Z,83.85
2024-04-06T05:27:13.538Z,83.95
2024-04-06T05:28:14.929Z,84.19
2024-04-06T05:29:16.286Z,83.95
2024-04-06T05:30:17.656Z,83.75
2024-04-06T05:31:19.014Z,83.65
2024-04-06T05:32:20.380Z,83.45
2024-04-06T05:33:21.766Z,83.45
2024-04-06T05:34:23.123Z,83.04
2024-04-06T05:35:24.504Z,82.84
2024-04-06T05:36:25.882Z,82.64
2024-04-06T05:37:27.257Z,82.74
2024-04-06T05:38:28.603Z,82.29
2024-04-06T05:39:29.962Z,82.29
2024-04-06T05:40:31.323Z,82.44
2024-04-06T05:41:32.678Z,82.33
2024-04-06T05:42:34.078Z,82.29
2024-04-06T05:43:35.461Z,81.99
2024-04-06T05:44:36.840Z,81.89
2024-04-06T05:45:38.203Z,81.79
2024-04-06T05:46:39.570Z,81.59
2024-04-06T05:47:41.059Z,81.39
2024-04-06T05:48:42.373Z,81.59
2024-04-06T05:49:43.744Z,81.28
2024-04-06T05:50:45.097Z,81.04
2024-04-06T05:51:46.443Z,80.74
2024-04-06T05:52:47.821Z,80.70
2024-04-06T05:53:49.176Z,80.60
2024-04-06T05:54:50.530Z,80.05
2024-04-06T05:55:51.902Z,79.65
2024-04-06T05:56:53.261Z,79.25
2024-04-06T05:57:54.651Z,79.01
2024-04-06T05:58:56.002Z,78.36
2024-04-06T05:59:57.365Z,77.82
2024-04-06T06:00:58.738Z,77.18
2024-04-06T06:02:00.123Z,77.08
2024-04-06T06:03:01.573Z,76.67
2024-04-06T06:04:02.925Z,76.44
2024-04-06T06:05:04.297Z,75.83
2024-04-06T06:06:05.663Z,75.33
2024-04-06T06:07:07.033Z,75.09
2024-04-06T06:08:08.389Z,74.89
2024-04-06T06:09:09.757Z,74.38
2024-04-06T06:10:11.147Z,74.89
2024-04-06T06:11:12.507Z,74.79
2024-04-06T06:12:13.967Z,74.69
2024-04-06T06:13:15.304Z,74.49
2024-04-06T06:14:17.235Z,74.59
2024-04-06T06:15:18.582Z,74.18
2024-04-06T06:16:19.927Z,74.15
2024-04-06T06:17:21.308Z,73.31
2024-04-06T06:18:22.717Z,71.49
2024-04-06T06:19:24.058Z,70.22
2024-04-06T06:20:25.417Z,68.92
2024-04-06T06:21:26.780Z,67.55
2024-04-06T06:22:28.161Z,65.58
2024-04-06T06:23:29.544Z,64.95
2024-04-06T06:24:30.927Z,63.79
2024-04-06T06:25:32.273Z,63.36
2024-04-06T06:26:33.689Z,62.82
2024-04-06T06:27:35.014Z,63.39
2024-04-06T06:28:36.415Z,64.35
2024-04-06T06:29:37.789Z,64.68
2024-04-06T06:30:39.121Z,65.31
2024-04-06T06:31:40.509Z,65.94
2024-04-06T06:32:41.901Z,67.21
2024-04-06T06:33:43.272Z,68.15
2024-04-06T06:34:44.644Z,68.58
2024-04-06T06:37:53.354Z,69.62
2024-04-06T06:40:55.686Z,70.72
2024-04-06T06:41:57.040Z,70.52
2024-04-06T06:42:58.400Z,70.42
2024-04-06T06:43:59.826Z,70.59
2024-04-06T06:45:01.205Z,70.09
2024-04-06T06:46:02.725Z,69.39
2024-04-06T06:47:04.084Z,69.48
2024-04-06T06:48:05.552Z,69.68
2024-04-06T06:49:06.939Z,70.29
2024-04-06T06:50:08.341Z,69.89
2024-04-06T06:51:09.653Z,69.48
2024-04-06T06:52:11.016Z,69.05
2024-04-06T06:53:12.365Z,69.15
2024-04-06T06:54:13.762Z,68.85
2024-04-06T06:55:15.130Z,68.85
2024-04-06T06:56:16.512Z,68.85
2024-04-06T06:57:17.871Z,69.25
2024-04-06T06:58:19.235Z,69.35
2024-04-06T06:59:20.622Z,68.51
2024-04-06T07:00:21.984Z,68.15
2024-04-06T07:01:23.373Z,67.32
2024-04-06T07:02:24.753Z,66.58
2024-04-06T07:03:26.093Z,65.68
2024-04-06T07:04:27.512Z,65.35
2024-04-06T07:05:28.881Z,64.62
2024-04-06T07:07:32.297Z,63.92
2024-04-06T07:08:33.675Z,63.56
2024-04-06T07:09:35.073Z,62.93
2024-04-06T07:10:36.433Z,62.01
2024-04-06T07:11:37.789Z,59.43
2024-04-06T07:12:39.136Z,58.45
2024-04-06T07:13:40.523Z,57.46
2024-04-06T07:14:41.919Z,56.54
2024-04-06T07:15:43.285Z,55.66
2024-04-06T07:16:44.669Z,53.90
2024-04-06T07:17:46.027Z,52.73
2024-04-06T07:18:47.392Z,51.17
2024-04-06T07:19:48.761Z,50.51
2024-04-06T07:20:50.118Z,48.16
2024-04-06T07:21:51.477Z,46.94
2024-04-06T07:22:52.846Z,46.69
2024-04-06T07:23:54.244Z,45.77
2024-04-06T07:24:55.618Z,44.84
2024-04-06T07:25:56.969Z,44.03
2024-04-06T07:26:58.347Z,43.50
2024-04-06T07:27:59.681Z,43.09
2024-04-06T07:29:01.153Z,42.28
2024-04-06T07:30:02.515Z,42.38
2024-04-06T07:31:03.899Z,41.36
2024-04-06T07:32:05.240Z,41.63
2024-04-06T07:33:06.613Z,41.16
2024-04-06T07:34:07.980Z,41.77
2024-04-06T07:35:09.357Z,40.97
2024-04-06T07:36:10.736Z,40.67
2024-04-06T07:37:12.152Z,41.07
2024-04-06T07:38:14.709Z,40.28
2024-04-06T07:40:16.690Z,39.68
2024-04-06T07:41:18.049Z,39.78
2024-04-06T07:42:19.409Z,40.15
2024-04-06T07:43:20.776Z,40.35
2024-04-06T07:44:22.141Z,39.47
2024-04-06T07:45:23.521Z,39.47
2024-04-06T07:46:24.880Z,39.17
2024-04-06T07:47:26.269Z,39.88
2024-04-06T07:48:27.607Z,40.83
2024-04-06T07:49:28.966Z,41.35
2024-04-06T07:50:30.353Z,41.35
2024-04-06T07:51:31.695Z,41.66
2024-04-06T07:52:33.080Z,41.76
2024-04-06T07:53:34.437Z,41.64
2024-04-06T07:54:35.788Z,41.32
2024-04-06T07:55:37.163Z,41.85
2024-04-06T07:56:38.522Z,41.64
2024-04-06T07:57:39.898Z,41.03
2024-04-06T07:58:41.291Z,40.70
2024-04-06T07:59:42.650Z,41.71
2024-04-06T08:00:44.040Z,42.38
2024-04-06T08:01:45.416Z,43.56
2024-04-06T08:02:46.772Z,43.60
2024-04-06T08:03:48.150Z,43.66
2024-04-06T08:04:49.491Z,42.44
2024-04-06T08:05:50.915Z,41.61
2024-04-06T08:06:52.243Z,40.89
2024-04-06T08:07:53.630Z,40.48
2024-04-06T08:08:54.997Z,40.17
2024-04-06T08:09:56.349Z,39.47
2024-04-06T08:10:57.704Z,39.74
2024-04-06T08:11:59.111Z,39.33
2024-04-06T08:13:00.460Z,38.84
2024-04-06T08:14:13.552Z,38.72
2024-04-06T08:15:03.678Z,38.61
2024-04-06T08:16:05.019Z,38.12
2024-04-06T08:17:06.379Z,38.10
2024-04-06T08:18:07.768Z,38.29
2024-04-06T08:19:09.158Z,38.00
2024-04-06T08:20:10.524Z,37.67
2024-04-06T08:21:11.919Z,37.46
2024-04-06T08:22:13.384Z,36.86
2024-04-06T08:23:14.740Z,36.57
2024-04-06T08:24:16.109Z,36.27
2024-04-06T08:25:17.483Z,36.18
2024-04-06T08:26:18.883Z,37.37
2024-04-06T08:27:20.204Z,36.60
2024-04-06T08:28:21.580Z,36.70
2024-04-06T08:29:22.956Z,37.01
2024-04-06T08:30:24.306Z,37.29
2024-04-06T08:31:25.698Z,37.31
2024-04-06T08:32:27.056Z,37.21
2024-04-06T08:33:28.417Z,37.21
2024-04-06T08:34:29.787Z,37.32
2024-04-06T08:35:31.168Z,37.53
2024-04-06T08:36:32.610Z,37.94
2024-04-06T08:37:33.989Z,38.28
2024-04-06T08:38:35.338Z,38.47
2024-04-06T08:39:36.702Z,38.90
2024-04-06T08:40:38.073Z,39.09
2024-04-06T08:41:39.437Z,38.70
2024-04-06T08:42:40.803Z,38.69
2024-04-06T08:43:42.176Z,38.59
2024-04-06T08:44:43.548Z,39.35
2024-04-06T08:45:44.914Z,38.76
2024-04-06T08:46:46.293Z,39.17
2024-04-06T08:47:47.637Z,38.67
2024-04-06T08:48:49.016Z,38.57
2024-04-06T08:49:50.421Z,38.47
2024-04-06T08:50:51.764Z,38.35
2024-04-06T08:51:53.145Z,38.15
2024-04-06T08:52:54.531Z,38.86
2024-04-06T08:53:55.870Z,39.09
2024-04-06T08:54:57.216Z,39.41
2024-04-06T08:55:58.589Z,39.39
2024-04-06T08:56:59.959Z,39.17
2024-04-06T08:58:01.335Z,39.17
2024-04-06T08:59:02.696Z,38.96
2024-04-06T09:00:04.059Z,39.06
2024-04-06T09:01:05.421Z,38.35
2024-04-06T09:02:06.830Z,38.25
2024-04-06T09:03:08.181Z,38.28
2024-04-06T09:04:09.537Z,38.37
2024-04-06T09:05:10.873Z,38.69
2024-04-06T09:06:12.242Z,38.98
2024-04-06T09:07:13.684Z,38.76
2024-04-06T09:08:15.017Z,38.88
2024-04-06T09:09:16.377Z,38.69
2024-04-06T09:10:17.777Z,39.08
2024-04-06T09:11:19.127Z,38.37
2024-04-06T09:12:20.518Z,38.15
2024-04-06T09:13:21.880Z,38.28
2024-04-06T09:14:25.792Z,38.76
2024-04-06T09:15:25.070Z,39.37
2024-04-06T09:16:26.426Z,39.17
2024-04-06T09:17:27.935Z,38.98
2024-04-06T09:18:31.083Z,39.27
2024-04-06T09:19:31.373Z,38.78
2024-04-06T09:20:32.739Z,38.88
2024-04-06T09:21:34.114Z,39.37
2024-04-06T09:22:35.481Z,39.47
2024-04-06T09:23:36.851Z,38.47
2024-04-06T09:24:38.229Z,38.54
2024-04-06T09:25:39.609Z,38.14
2024-04-06T09:26:40.967Z,37.94
2024-04-06T09:27:42.347Z,38.25
2024-04-06T09:28:43.724Z,38.35
2024-04-06T09:29:45.091Z,38.06
2024-04-06T09:30:46.467Z,37.75
2024-04-06T09:31:47.832Z,37.34
2024-04-06T09:32:49.212Z,36.95
2024-04-06T09:33:50.595Z,36.85
2024-04-06T09:34:51.952Z,37.05
2024-04-06T09:35:53.330Z,37.38
2024-04-06T09:36:54.712Z,37.57
2024-04-06T09:37:56.119Z,37.98
2024-04-06T09:38:57.493Z,38.49
2024-04-06T09:39:58.879Z,38.88
2024-04-06T09:41:00.257Z,38.49
2024-04-06T09:42:01.632Z,38.37
2024-04-06T09:43:03.021Z,37.86
2024-04-06T09:44:04.400Z,37.84
2024-04-06T09:45:05.792Z,37.53
2024-04-06T09:46:07.163Z,37.26
2024-04-06T09:47:08.541Z,37.65
2024-04-06T09:48:09.915Z,37.65
2024-04-06T09:49:11.334Z,37.76
2024-04-06T09:50:12.656Z,37.98
2024-04-06T09:51:14.020Z,38.20
2024-04-06T09:52:15.439Z,38.28
2024-04-06T09:53:16.793Z,38.59
2024-04-06T09:54:18.135Z,38.80
2024-04-06T09:55:19.492Z,39.00
2024-04-06T09:56:23.212Z,38.67
2024-04-06T09:57:22.847Z,37.84
2024-04-06T09:58:24.267Z,37.38
2024-04-06T09:59:25.630Z,38.06
2024-04-06T10:00:27.027Z,38.62
2024-04-06T10:01:28.387Z,37.15
2024-04-06T10:02:29.744Z,36.95
2024-04-06T10:03:31.144Z,37.57
2024-04-06T10:04:32.500Z,37.76
2024-04-06T10:05:33.857Z,37.86
2024-04-06T10:06:36.019Z,37.69
2024-04-06T10:07:37.503Z,38.51
2024-04-06T10:08:38.863Z,38.62
2024-04-06T10:09:40.226Z,38.70
2024-04-06T10:10:41.570Z,38.80
2024-04-06T10:11:42.928Z,38.78
2024-04-06T10:12:44.287Z,38.49
2024-04-06T10:13:45.701Z,38.47
2024-04-06T10:14:47.041Z,38.45
2024-04-06T10:15:48.408Z,37.94
2024-04-06T10:16:49.771Z,38.14
2024-04-06T10:17:51.192Z,38.12
2024-04-06T10:18:52.600Z,37.82
2024-04-06T10:19:55.217Z,37.92
2024-04-06T10:21:05.430Z,37.89
2024-04-06T10:21:56.870Z,38.39
2024-04-06T10:22:58.223Z,38.86
2024-04-06T10:23:59.602Z,38.06
2024-04-06T10:25:00.957Z,37.94
2024-04-06T10:26:02.288Z,37.63
2024-04-06T10:27:03.663Z,36.84
2024-04-06T10:28:05.022Z,36.13
2024-04-06T10:29:06.397Z,36.33
2024-04-06T10:30:07.738Z,36.21
2024-04-06T10:31:11.874Z,35.82
2024-04-06T10:32:10.305Z,35.94
2024-04-06T10:33:11.710Z,36.45
2024-04-06T10:34:13.122Z,36.13
2024-04-06T10:35:14.451Z,36.35
2024-04-06T10:36:15.815Z,36.85
2024-04-06T10:37:17.207Z,37.03
2024-04-06T10:38:18.531Z,36.90
2024-04-06T10:39:19.936Z,36.51
2024-04-06T10:40:21.333Z,36.41
2024-04-06T10:41:22.678Z,36.43
2024-04-06T10:42:24.066Z,36.62
2024-04-06T10:43:25.409Z,36.62
2024-04-06T10:44:26.792Z,36.52
2024-04-06T10:45:28.225Z,36.62
2024-04-06T10:46:29.533Z,36.21
2024-04-06T10:48:32.175Z,35.80
2024-04-06T10:49:33.557Z,35.80
2024-04-06T10:50:35.029Z,35.65
2024-04-06T10:51:36.388Z,35.84
2024-04-06T10:52:37.795Z,36.56
2024-04-06T10:53:39.146Z,36.97
2024-04-06T10:54:40.507Z,36.97
2024-04-06T10:55:41.876Z,37.18
2024-04-06T10:56:43.258Z,37.09
2024-04-06T10:57:44.598Z,37.17
2024-04-06T10:58:45.952Z,37.05
2024-04-06T10:59:47.304Z,36.33
2024-04-06T11:00:48.668Z,35.92
2024-04-06T11:01:50.157Z,35.72
2024-04-06T11:02:51.504Z,35.53
2024-04-06T11:03:52.854Z,34.46
2024-04-06T11:04:54.247Z,35.16
2024-04-06T11:05:55.605Z,35.45
2024-04-06T11:06:56.985Z,35.06
2024-04-06T11:07:58.357Z,35.78
2024-04-06T11:08:59.703Z,35.88
2024-04-06T11:10:01.151Z,36.48
2024-04-06T11:11:02.497Z,36.87
2024-04-06T11:12:03.854Z,37.46
2024-04-06T11:13:05.208Z,36.45
2024-04-06T11:14:06.571Z,36.92
2024-04-06T11:15:07.953Z,36.68
2024-04-06T11:16:09.349Z,36.19
2024-04-06T11:17:10.677Z,35.11
2024-04-06T11:18:12.033Z,34.91
2024-04-06T11:19:13.418Z,35.43
2024-04-06T11:20:14.780Z,35.33
2024-04-06T11:21:16.115Z,35.72
2024-04-06T11:22:17.527Z,35.86
2024-04-06T11:23:18.876Z,36.15
2024-04-06T11:24:20.236Z,36.12
2024-04-06T11:25:21.688Z,36.57
2024-04-06T11:26:23.032Z,35.60
2024-04-06T11:27:24.409Z,35.32
2024-04-06T11:28:25.800Z,35.32
2024-04-06T11:29:27.158Z,34.93
2024-04-06T11:30:28.549Z,35.11
2024-04-06T11:31:29.903Z,35.03
2024-04-06T11:32:31.237Z,35.03
2024-04-06T11:33:32.624Z,35.05
2024-04-06T11:34:33.979Z,35.90
2024-04-06T11:35:35.359Z,35.42
2024-04-06T11:36:36.750Z,35.03
2024-04-06T11:37:38.932Z,35.22
2024-04-06T11:38:39.210Z,35.79
2024-04-06T11:39:40.609Z,35.58
2024-04-06T11:40:41.985Z,35.17
2024-04-06T11:41:43.375Z,34.67
2024-04-06T11:42:44.728Z,34.57
2024-04-06T11:43:46.099Z,34.77
2024-04-06T11:44:47.434Z,34.46
2024-04-06T11:45:48.855Z,33.88
2024-04-06T11:46:50.237Z,33.58
2024-04-06T11:47:51.598Z,33.78
2024-04-06T11:48:52.956Z,34.79
2024-04-06T11:49:54.313Z,34.59
2024-04-06T11:50:55.692Z,35.60
2024-04-06T11:51:57.072Z,35.43
2024-04-06T11:52:58.419Z,35.94
2024-04-06T11:53:59.780Z,36.84
2024-04-06T11:55:01.144Z,35.96
2024-04-06T11:56:02.582Z,36.48
2024-04-06T11:57:03.910Z,36.81
2024-04-06T11:58:05.272Z,37.53
2024-04-06T11:59:06.631Z,38.15
2024-04-06T12:00:08.041Z,38.64
2024-04-06T12:01:09.415Z,38.56
2024-04-06T12:02:10.786Z,38.47
2024-04-06T12:03:12.146Z,38.54
2024-04-06T12:04:13.559Z,38.51
2024-04-06T12:05:14.887Z,37.71
2024-04-06T12:06:16.273Z,37.40
2024-04-06T12:07:17.639Z,37.63
2024-04-06T12:08:18.996Z,37.45
2024-04-06T12:09:20.360Z,37.82
2024-04-06T12:10:21.763Z,38.14
2024-04-06T12:11:23.126Z,38.33
2024-04-06T12:12:24.522Z,38.12
2024-04-06T12:13:25.910Z,37.57
2024-04-06T12:14:27.291Z,37.46
2024-04-06T12:15:28.651Z,36.07
2024-04-06T12:16:30.035Z,37.03
2024-04-06T12:17:31.399Z,35.92
2024-04-06T12:18:32.731Z,35.90
2024-04-06T12:19:34.104Z,35.13
2024-04-06T12:20:35.471Z,35.03
2024-04-06T12:21:36.887Z,35.03
2024-04-06T12:22:38.254Z,35.53
2024-04-06T12:23:39.629Z,35.32
2024-04-06T12:24:41.002Z,35.80
2024-04-06T12:25:42.364Z,34.74
2024-04-06T12:26:43.764Z,35.11
2024-04-06T12:27:45.142Z,35.01
2024-04-06T12:28:46.518Z,35.03
2024-04-06T12:29:47.881Z,34.74
2024-04-06T12:30:49.258Z,34.96
2024-04-06T12:31:50.664Z,35.27
2024-04-06T12:32:52.010Z,35.29
2024-04-06T12:33:55.451Z,35.93
2024-04-06T12:34:54.809Z,36.35
2024-04-06T12:35:56.172Z,37.40
2024-04-06T12:36:58.413Z,38.62
2024-04-06T12:37:58.878Z,39.25
2024-04-06T12:39:00.242Z,40.09
2024-04-06T12:40:01.599Z,41.52
2024-04-06T12:41:02.958Z,42.06
2024-04-06T12:42:04.328Z,42.88
2024-04-06T12:43:05.689Z,43.62
2024-04-06T12:44:07.060Z,44.14
2024-04-06T12:45:10.172Z,45.12
2024-04-06T12:46:10.496Z,45.05
2024-04-06T12:47:11.864Z,44.65
2024-04-06T12:48:13.216Z,45.24
2024-04-06T12:49:14.593Z,45.76
2024-04-06T12:50:15.945Z,44.97
2024-04-06T12:51:17.303Z,44.79
2024-04-06T12:52:18.687Z,44.89
2024-04-06T12:53:20.035Z,44.99
2024-04-06T12:54:21.413Z,45.19
2024-04-06T12:55:22.843Z,45.11
2024-04-06T12:56:24.191Z,45.41
2024-04-06T12:57:25.570Z,45.92
2024-04-06T12:58:26.928Z,45.73
2024-04-06T12:59:28.289Z,46.12
2024-04-06T13:00:29.663Z,46.12
2024-04-06T13:01:31.004Z,46.02
2024-04-06T13:02:32.413Z,46.22
2024-04-06T13:03:34.698Z,46.72
2024-04-06T13:04:35.936Z,46.82
2024-04-06T13:05:37.295Z,46.42
2024-04-06T13:06:38.659Z,45.83
2024-04-06T13:07:40.057Z,46.22
2024-04-06T13:08:41.434Z,47.11
2024-04-06T13:09:42.788Z,46.82
2024-04-06T13:10:44.160Z,46.82
2024-04-06T13:11:45.489Z,46.44
2024-04-06T13:12:46.869Z,46.35
2024-04-06T13:13:49.000Z,46.64
2024-04-06T13:14:50.080Z,46.94
2024-04-06T13:15:51.432Z,47.33
2024-04-06T13:16:52.819Z,47.63
2024-04-06T13:17:54.197Z,47.24
2024-04-06T13:18:55.562Z,46.96
2024-04-06T13:19:56.921Z,47.95
2024-04-06T13:20:58.281Z,47.87
2024-04-06T13:21:59.649Z,48.77
2024-04-06T13:23:01.024Z,47.97
2024-04-06T13:24:02.404Z,47.97
2024-04-06T13:25:03.771Z,47.90
2024-04-06T13:26:05.104Z,48.49
2024-04-06T13:27:06.467Z,49.19
2024-04-06T13:28:07.838Z,48.89
2024-04-06T13:29:09.253Z,48.59
2024-04-06T13:30:10.603Z,48.00
2024-04-06T13:31:11.942Z,48.19
2024-04-06T13:32:13.324Z,48.00
2024-04-06T13:33:14.700Z,47.50
2024-04-06T13:34:16.101Z,47.90
2024-04-06T13:35:17.424Z,47.60
2024-04-06T13:36:18.791Z,48.00
2024-04-06T13:37:20.232Z,47.70
2024-04-06T13:38:21.584Z,48.32
2024-04-06T13:39:22.939Z,48.22
2024-04-06T13:40:24.342Z,48.41
2024-04-06T13:41:25.725Z,49.90
2024-04-06T13:42:27.070Z,48.71
2024-04-06T13:43:28.447Z,48.04
2024-04-06T13:44:29.886Z,48.91
2024-04-06T13:45:31.262Z,48.71
2024-04-06T13:46:32.647Z,48.32
2024-04-06T13:47:34.013Z,48.04
2024-04-06T13:48:35.380Z,48.71
2024-04-06T13:49:36.737Z,48.41
2024-04-06T13:50:38.093Z,48.22
2024-04-06T13:51:39.526Z,48.22
2024-04-06T13:52:40.885Z,48.52
2024-04-06T13:53:42.260Z,48.52
2024-04-06T13:54:43.631Z,48.52
2024-04-06T13:55:44.994Z,48.22
2024-04-06T13:56:46.328Z,48.52
2024-04-06T13:57:47.701Z,48.12
2024-04-06T13:58:49.548Z,48.41
2024-04-06T13:59:50.881Z,48.91
2024-04-06T14:00:52.235Z,49.11
2024-04-06T14:01:53.614Z,48.62
2024-04-06T14:02:54.976Z,49.41
2024-04-06T14:03:56.376Z,48.41
2024-04-06T14:04:57.751Z,47.92
2024-04-06T14:05:59.154Z,48.41
2024-04-06T14:07:00.526Z,47.92
2024-04-06T14:08:01.881Z,47.82
2024-04-06T14:09:03.261Z,47.62
2024-04-06T14:10:04.616Z,47.03
2024-04-06T14:11:05.981Z,47.22
2024-04-06T14:12:07.337Z,46.83
2024-04-06T14:13:08.712Z,46.83
2024-04-06T14:14:10.107Z,46.73
2024-04-06T14:15:11.511Z,46.24
2024-04-06T14:16:12.853Z,45.94
2024-04-06T14:17:14.220Z,46.24
2024-04-06T14:18:15.618Z,45.64
2024-04-06T14:19:17.019Z,45.44
2024-04-06T14:20:18.386Z,45.73
2024-04-06T14:21:19.758Z,45.42
2024-04-06T14:22:21.125Z,45.62
2024-04-06T14:23:22.470Z,45.02
2024-04-06T14:24:23.862Z,45.32
2024-04-06T14:25:25.254Z,45.62
2024-04-06T14:26:26.567Z,45.81
2024-04-06T14:27:27.950Z,45.81
2024-04-06T14:28:29.331Z,45.32
2024-04-06T14:29:30.693Z,45.22
2024-04-06T14:30:32.069Z,44.83
2024-04-06T14:31:33.447Z,44.83
2024-04-06T14:32:34.807Z,44.92
2024-04-06T14:33:36.152Z,45.05
2024-04-06T14:34:37.539Z,45.05
2024-04-06T14:35:38.895Z,46.03
2024-04-06T14:36:40.259Z,45.84
2024-04-06T14:37:41.619Z,45.42
2024-04-06T14:38:42.987Z,45.12
2024-04-06T14:39:44.381Z,45.42
2024-04-06T14:40:45.756Z,45.42
2024-04-06T14:41:47.106Z,45.32
2024-04-06T14:42:48.483Z,45.12
2024-04-06T14:43:49.840Z,45.52
2024-04-06T14:44:51.217Z,45.52
2024-04-06T14:45:52.813Z,45.32
2024-04-06T14:46:54.171Z,44.83
2024-04-06T14:47:55.531Z,45.12
2024-04-06T14:48:56.886Z,45.22
2024-04-06T14:49:58.251Z,45.12
2024-04-06T14:50:59.627Z,45.02
2024-04-06T14:52:01.011Z,45.42
2024-04-06T14:53:02.361Z,45.32
2024-04-06T14:54:03.719Z,44.03
2024-04-06T14:55:05.092Z,44.32
2024-04-06T14:56:06.453Z,44.32
2024-04-06T14:57:07.811Z,44.32
2024-04-06T14:58:09.162Z,44.53
2024-04-06T14:59:10.522Z,44.72
2024-04-06T15:00:11.907Z,44.53
2024-04-06T15:01:16.084Z,44.72
2024-04-06T15:02:14.645Z,44.72
2024-04-06T15:03:15.974Z,44.43
2024-04-06T15:04:17.357Z,44.92
2024-04-06T15:05:18.729Z,45.20
2024-04-06T15:06:20.093Z,45.12
2024-04-06T15:07:30.948Z,45.00
2024-04-06T15:08:23.304Z,44.90
2024-04-06T15:09:24.660Z,45.30
2024-04-06T15:10:26.087Z,44.60
2024-04-06T15:11:27.417Z,44.31
2024-04-06T15:12:28.791Z,44.21
2024-04-06T15:13:30.202Z,43.91
2024-04-06T15:14:31.524Z,44.01
2024-04-06T15:15:32.896Z,44.01
2024-04-06T15:16:34.262Z,43.51
2024-04-06T15:17:35.633Z,44.01
2024-04-06T15:18:37.062Z,44.21
2024-04-06T15:19:38.361Z,44.18
2024-04-06T15:20:39.780Z,44.18
2024-04-06T15:21:41.130Z,43.99
2024-04-06T15:22:42.514Z,44.11
2024-04-06T15:23:43.868Z,43.71
2024-04-06T15:24:45.249Z,43.42
2024-04-06T15:25:46.632Z,43.51
2024-04-06T15:26:47.972Z,43.61
2024-04-06T15:27:59.038Z,43.71
2024-04-06T15:28:50.499Z,43.91
2024-04-06T15:29:51.857Z,44.01
2024-04-06T15:30:53.253Z,44.40
2024-04-06T15:31:54.617Z,43.81
2024-04-06T15:32:55.978Z,43.81
2024-04-06T15:33:57.329Z,44.01
2024-04-06T15:34:58.686Z,44.21
2024-04-06T15:36:00.071Z,44.11
2024-04-06T15:37:04.406Z,43.31
2024-04-06T15:38:02.736Z,43.12
2024-04-06T15:39:04.112Z,42.82
2024-04-06T15:40:05.496Z,42.52
2024-04-06T15:41:06.875Z,42.52
2024-04-06T15:42:08.212Z,42.42
2024-04-06T15:43:09.576Z,42.91
2024-04-06T15:44:10.943Z,42.23
2024-04-06T15:45:12.303Z,42.64
2024-04-06T15:46:13.676Z,42.52
2024-04-06T15:47:15.060Z,42.42
2024-04-06T15:48:16.442Z,42.82
2024-04-06T15:49:19.484Z,42.91
2024-04-06T15:50:20.425Z,42.72
2024-04-06T15:51:21.796Z,42.42
2024-04-06T15:52:23.161Z,42.52
2024-04-06T15:53:24.512Z,42.02
2024-04-06T15:54:25.876Z,41.83
2024-04-06T15:55:27.323Z,41.93
2024-04-06T15:56:28.750Z,41.53
2024-04-06T15:57:30.108Z,42.02
2024-04-06T15:58:31.472Z,41.51
2024-04-06T15:59:32.831Z,40.82
2024-04-06T16:00:34.190Z,40.62
2024-04-06T16:01:35.580Z,40.52
2024-04-06T16:02:36.936Z,40.52
2024-04-06T16:03:38.316Z,40.52
2024-04-06T16:04:39.671Z,40.32
2024-04-06T16:05:41.038Z,40.32
2024-04-06T16:06:42.402Z,40.42
2024-04-06T16:07:43.762Z,40.62
2024-04-06T16:08:45.134Z,40.72
2024-04-06T16:09:46.480Z,41.21
2024-04-06T16:10:48.415Z,40.91
2024-04-06T16:11:49.791Z,40.91
2024-04-06T16:12:51.155Z,41.02
2024-04-06T16:13:52.500Z,41.11
2024-04-06T16:14:53.855Z,41.21
2024-04-06T16:15:55.222Z,41.23
2024-04-06T16:16:56.621Z,41.13
2024-04-06T16:17:57.994Z,41.23
2024-04-06T16:18:59.374Z,41.63
2024-04-06T16:20:00.716Z,41.72
2024-04-06T16:21:02.060Z,41.53
2024-04-06T16:22:03.458Z,41.43
2024-04-06T16:23:04.808Z,41.13
2024-04-06T16:24:06.173Z,41.23
2024-04-06T16:25:07.551Z,42.42
2024-04-06T16:26:08.910Z,41.45
2024-04-06T16:27:10.323Z,41.45
2024-04-06T16:28:11.692Z,41.75
2024-04-06T16:29:13.047Z,41.75
2024-04-06T16:30:17.549Z,41.85
2024-04-06T16:31:15.945Z,41.75
2024-04-06T16:32:17.359Z,41.94
2024-04-06T16:33:18.721Z,42.05
2024-04-06T16:34:20.088Z,41.87
2024-04-06T16:35:21.446Z,42.16
2024-04-06T16:36:22.778Z,41.87
2024-04-06T16:37:24.199Z,42.37
2024-04-06T16:38:25.531Z,42.07
2024-04-06T16:39:26.897Z,41.87
2024-04-06T16:40:28.275Z,41.89
2024-04-06T16:41:29.605Z,41.69
2024-04-06T16:42:30.992Z,41.39
2024-04-06T16:43:32.365Z,42.08
2024-04-06T16:44:33.714Z,42.68
2024-04-06T16:45:35.075Z,41.69
2024-04-06T16:46:36.430Z,41.81
2024-04-06T16:47:37.813Z,42.21
2024-04-06T16:48:39.174Z,42.40
2024-04-06T16:49:40.536Z,42.80
2024-04-06T16:50:41.879Z,42.60
2024-04-06T16:51:43.234Z,42.52
2024-04-06T16:52:44.641Z,43.02
2024-04-06T16:53:46.022Z,43.42
2024-04-06T16:54:47.359Z,44.21
2024-04-06T16:55:48.718Z,43.44
2024-04-06T16:56:50.092Z,43.24
2024-04-06T16:57:51.490Z,43.14
2024-04-06T16:58:52.874Z,43.84
2024-04-06T16:59:54.213Z,44.04
2024-04-06T17:00:55.590Z,43.76
2024-04-06T17:01:56.949Z,43.66
2024-04-06T17:02:58.316Z,43.26
2024-04-06T17:03:59.681Z,43.56
2024-04-06T17:05:01.047Z,43.46
2024-04-06T17:06:02.422Z,43.68
2024-04-06T17:07:03.779Z,43.68
2024-04-06T17:08:05.153Z,43.78
2024-04-06T17:09:06.503Z,44.37
2024-04-06T17:10:07.905Z,43.90
2024-04-06T17:11:09.240Z,43.90
2024-04-06T17:12:10.603Z,44.40
2024-04-06T17:13:11.992Z,44.50
2024-04-06T17:14:13.359Z,44.52
2024-04-06T17:15:14.720Z,44.82
2024-04-06T17:16:16.088Z,44.52
2024-04-06T17:17:17.440Z,44.62
2024-04-06T17:18:18.839Z,45.12
2024-04-06T17:19:20.223Z,45.14
2024-04-06T17:20:21.582Z,45.14
2024-04-06T17:21:22.960Z,46.24
2024-04-06T17:22:24.321Z,45.36
2024-04-06T17:23:25.690Z,46.06
2024-04-06T17:24:27.040Z,45.36
2024-04-06T17:25:28.429Z,47.15
2024-04-06T17:26:29.775Z,45.68
2024-04-06T17:27:31.137Z,45.66
2024-04-06T17:28:32.736Z,45.86
2024-04-06T17:29:34.108Z,45.95
2024-04-06T17:30:35.451Z,46.06
2024-04-06T17:31:36.798Z,46.16
2024-04-06T17:32:38.176Z,46.45
2024-04-06T17:33:39.525Z,46.96
2024-04-06T17:34:40.886Z,47.08
2024-04-06T17:35:42.264Z,47.08
2024-04-06T17:36:43.728Z,47.80
2024-04-06T17:37:45.090Z,48.79
2024-04-06T17:38:46.464Z,48.40
2024-04-06T17:39:47.827Z,48.32
2024-04-06T17:40:49.189Z,48.72
2024-04-06T17:41:50.553Z,49.02
2024-04-06T17:42:51.929Z,49.24
2024-04-06T17:43:53.285Z,49.64
2024-04-06T17:44:54.629Z,49.96
2024-04-06T17:45:55.990Z,50.37
2024-04-06T17:46:57.409Z,50.17
2024-04-06T17:47:58.736Z,50.69
2024-04-06T17:49:00.128Z,50.79
2024-04-06T17:50:01.509Z,50.99
2024-04-06T17:51:02.902Z,50.89
